Amor, Minnesota
Current Conditions -  °F | °C
As of 11:54 AM on Friday 21 Nov 2014 (Local Time) from KFFM Reporting Station
Clear Clear  
Wind Chill: -12°   Ceiling: Unl
Heat Index: -4°   Visibility: 10mi
Dew Point: -9°   Wind: 22mph
Humidity: 69%   Direction: 170°S
Pressure: 29.91"   Gusts: 29mph
Location:  46.3166°N, 95.7183°W
Report Text: KFFM 211754Z AUTO 17019G25KT 10SM CLR M04/M09 A2991 RMK AO2
Loading
Personal Weather Stations






























Interactive Weather Map New forecast layout! Learn more

10-Day Weather Forecast

Advertisements
Track Severe Weather on mobile